sensor_id;sensor_type;location;lat;lon;timestamp;P1;durP1;ratioP1;P2;durP2;ratioP2
31004;SDS011;17676;52.254;4.490;2024-03-02T00:00:07;0.10;;;0.10;;
31004;SDS011;17676;52.254;4.490;2024-03-02T00:02:43;0.10;;;0.10;;
31004;SDS011;17676;52.254;4.490;2024-03-02T00:05:12;0.55;;;0.10;;
31004;SDS011;17676;52.254;4.490;2024-03-02T00:07:44;0.10;;;0.10;;
31004;SDS011;17676;52.254;4.490;2024-03-02T00:10:14;0.20;;;0.10;;
31004;SDS011;17676;52.254;4.490;2024-03-02T00:12:46;0.10;;;0.10;;
31004;SDS011;17676;52.254;4.490;2024-03-02T00:18:02;0.47;;;0.10;;
31004;SDS011;17676;52.254;4.490;2024-03-02T00:20:31;0.13;;;0.05;;
31004;SDS011;17676;52.254;4.490;2024-03-02T00:23:07;0.22;;;0.10;;
31004;SDS011;17676;52.254;4.490;2024-03-02T00:28:04;0.57;;;0.10;;
31004;SDS011;17676;52.254;4.490;2024-03-02T00:30:40;0.50;;;0.10;;
31004;SDS011;17676;52.254;4.490;2024-03-02T00:33:10;1.05;;;0.65;;
31004;SDS011;17676;52.254;4.490;2024-03-02T00:35:36;1.08;;;0.10;;
31004;SDS011;17676;52.254;4.490;2024-03-02T00:38:04;0.10;;;0.10;;
31004;SDS011;17676;52.254;4.490;2024-03-02T00:40:32;0.73;;;0.10;;
31004;SDS011;17676;52.254;4.490;2024-03-02T00:42:59;0.10;;;0.10;;
31004;SDS011;17676;52.254;4.490;2024-03-02T00:45:26;0.13;;;0.10;;
31004;SDS011;17676;52.254;4.490;2024-03-02T00:47:52;1.77;;;0.10;;
31004;SDS011;17676;52.254;4.490;2024-03-02T00:50:19;0.75;;;0.20;;
31004;SDS011;17676;52.254;4.490;2024-03-02T00:52:56;2.25;;;0.20;;
31004;SDS011;17676;52.254;4.490;2024-03-02T00:55:22;0.20;;;0.20;;
31004;SDS011;17676;52.254;4.490;2024-03-02T00:57:49;0.95;;;0.20;;
31004;SDS011;17676;52.254;4.490;2024-03-02T01:00:16;1.08;;;0.20;;
31004;SDS011;17676;52.254;4.490;2024-03-02T01:02:44;0.90;;;0.10;;
31004;SDS011;17676;52.254;4.490;2024-03-02T01:05:12;0.40;;;0.10;;
31004;SDS011;17676;52.254;4.490;2024-03-02T01:07:39;1.02;;;0.10;;
31004;SDS011;17676;52.254;4.490;2024-03-02T01:10:05;0.17;;;0.10;;
31004;SDS011;17676;52.254;4.490;2024-03-02T01:12:32;0.85;;;0.20;;
31004;SDS011;17676;52.254;4.490;2024-03-02T01:14:59;1.08;;;0.10;;
31004;SDS011;17676;52.254;4.490;2024-03-02T01:17:25;0.50;;;0.10;;
31004;SDS011;17676;52.254;4.490;2024-03-02T01:19:52;0.10;;;0.10;;
31004;SDS011;17676;52.254;4.490;2024-03-02T01:22:18;0.40;;;0.10;;
31004;SDS011;17676;52.254;4.490;2024-03-02T01:24:51;0.20;;;0.10;;
31004;SDS011;17676;52.254;4.490;2024-03-02T01:27:18;2.83;;;0.10;;
31004;SDS011;17676;52.254;4.490;2024-03-02T01:29:45;0.52;;;0.20;;
31004;SDS011;17676;52.254;4.490;2024-03-02T01:32:11;0.25;;;0.10;;
31004;SDS011;17676;52.254;4.490;2024-03-02T01:34:38;0.20;;;0.20;;
31004;SDS011;17676;52.254;4.490;2024-03-02T01:37:05;0.40;;;0.10;;
31004;SDS011;17676;52.254;4.490;2024-03-02T01:39:31;1.38;;;0.20;;
31004;SDS011;17676;52.254;4.490;2024-03-02T01:41:58;1.35;;;0.20;;
31004;SDS011;17676;52.254;4.490;2024-03-02T01:44:24;0.73;;;0.30;;
31004;SDS011;17676;52.254;4.490;2024-03-02T01:46:51;0.35;;;0.20;;
31004;SDS011;17676;52.254;4.490;2024-03-02T01:49:18;0.60;;;0.30;;
31004;SDS011;17676;52.254;4.490;2024-03-02T01:51:45;0.30;;;0.30;;
31004;SDS011;17676;52.254;4.490;2024-03-02T01:54:12;1.50;;;0.30;;
31004;SDS011;17676;52.254;4.490;2024-03-02T01:56:39;0.68;;;0.28;;
31004;SDS011;17676;52.254;4.490;2024-03-02T01:59:06;0.32;;;0.20;;
31004;SDS011;17676;52.254;4.490;2024-03-02T02:01:32;0.88;;;0.20;;
31004;SDS011;17676;52.254;4.490;2024-03-02T02:03:59;0.30;;;0.30;;
31004;SDS011;17676;52.254;4.490;2024-03-02T02:06:26;0.80;;;0.20;;
31004;SDS011;17676;52.254;4.490;2024-03-02T02:08:54;0.20;;;0.20;;
31004;SDS011;17676;52.254;4.490;2024-03-02T02:11:20;2.33;;;0.68;;
31004;SDS011;17676;52.254;4.490;2024-03-02T02:13:47;0.57;;;0.35;;
31004;SDS011;17676;52.254;4.490;2024-03-02T02:16:13;0.88;;;0.30;;
31004;SDS011;17676;52.254;4.490;2024-03-02T02:18:40;0.20;;;0.10;;
31004;SDS011;17676;52.254;4.490;2024-03-02T02:21:07;0.20;;;0.10;;
31004;SDS011;17676;52.254;4.490;2024-03-02T02:23:34;0.43;;;0.20;;
31004;SDS011;17676;52.254;4.490;2024-03-02T02:26:01;1.33;;;0.30;;
31004;SDS011;17676;52.254;4.490;2024-03-02T02:28:29;2.63;;;0.57;;
31004;SDS011;17676;52.254;4.490;2024-03-02T02:30:56;0.80;;;0.60;;
31004;SDS011;17676;52.254;4.490;2024-03-02T02:33:22;1.38;;;0.82;;
31004;SDS011;17676;52.254;4.490;2024-03-02T02:35:49;2.87;;;1.63;;
31004;SDS011;17676;52.254;4.490;2024-03-02T02:38:16;2.07;;;1.70;;
31004;SDS011;17676;52.254;4.490;2024-03-02T02:40:42;2.93;;;1.93;;
31004;SDS011;17676;52.254;4.490;2024-03-02T02:43:09;2.85;;;2.60;;
31004;SDS011;17676;52.254;4.490;2024-03-02T02:45:36;3.83;;;3.43;;
31004;SDS011;17676;52.254;4.490;2024-03-02T02:48:03;4.87;;;3.63;;
31004;SDS011;17676;52.254;4.490;2024-03-02T02:50:30;5.13;;;3.90;;
31004;SDS011;17676;52.254;4.490;2024-03-02T02:52:57;4.65;;;4.25;;
31004;SDS011;17676;52.254;4.490;2024-03-02T02:55:23;3.78;;;3.47;;
31004;SDS011;17676;52.254;4.490;2024-03-02T02:57:50;3.60;;;3.35;;
31004;SDS011;17676;52.254;4.490;2024-03-02T03:00:17;5.85;;;4.07;;
31004;SDS011;17676;52.254;4.490;2024-03-02T03:02:47;3.45;;;3.25;;
31004;SDS011;17676;52.254;4.490;2024-03-02T03:05:17;3.70;;;3.42;;
31004;SDS011;17676;52.254;4.490;2024-03-02T03:07:44;3.85;;;3.50;;
31004;SDS011;17676;52.254;4.490;2024-03-02T03:10:13;3.30;;;3.00;;
31004;SDS011;17676;52.254;4.490;2024-03-02T03:12:41;3.70;;;3.40;;
31004;SDS011;17676;52.254;4.490;2024-03-02T03:15:10;3.47;;;3.27;;
31004;SDS011;17676;52.254;4.490;2024-03-02T03:17:37;3.10;;;2.90;;
31004;SDS011;17676;52.254;4.490;2024-03-02T03:20:04;2.45;;;2.35;;
31004;SDS011;17676;52.254;4.490;2024-03-02T03:22:32;3.17;;;2.35;;
31004;SDS011;17676;52.254;4.490;2024-03-02T03:24:59;4.22;;;2.10;;
31004;SDS011;17676;52.254;4.490;2024-03-02T03:27:26;2.08;;;1.90;;
31004;SDS011;17676;52.254;4.490;2024-03-02T03:29:53;3.42;;;1.65;;
31004;SDS011;17676;52.254;4.490;2024-03-02T03:32:21;2.85;;;1.58;;
31004;SDS011;17676;52.254;4.490;2024-03-02T03:34:47;1.13;;;1.13;;
31004;SDS011;17676;52.254;4.490;2024-03-02T03:37:15;1.35;;;1.25;;
31004;SDS011;17676;52.254;4.490;2024-03-02T03:39:41;1.65;;;1.30;;
31004;SDS011;17676;52.254;4.490;2024-03-02T03:42:08;4.55;;;1.48;;
31004;SDS011;17676;52.254;4.490;2024-03-02T03:44:35;2.28;;;1.10;;
31004;SDS011;17676;52.254;4.490;2024-03-02T03:47:01;2.65;;;1.13;;
31004;SDS011;17676;52.254;4.490;2024-03-02T03:49:28;1.48;;;1.25;;
31004;SDS011;17676;52.254;4.490;2024-03-02T03:51:55;1.52;;;1.13;;
31004;SDS011;17676;52.254;4.490;2024-03-02T03:54:22;2.63;;;1.42;;
31004;SDS011;17676;52.254;4.490;2024-03-02T03:56:49;1.15;;;0.93;;
31004;SDS011;17676;52.254;4.490;2024-03-02T03:59:15;3.00;;;0.98;;
31004;SDS011;17676;52.254;4.490;2024-03-02T04:01:42;2.08;;;1.30;;
31004;SDS011;17676;52.254;4.490;2024-03-02T04:04:09;2.90;;;1.17;;
31004;SDS011;17676;52.254;4.490;2024-03-02T04:06:35;1.23;;;1.00;;
31004;SDS011;17676;52.254;4.490;2024-03-02T04:09:02;1.33;;;1.23;;
31004;SDS011;17676;52.254;4.490;2024-03-02T04:11:30;1.83;;;1.13;;
31004;SDS011;17676;52.254;4.490;2024-03-02T04:13:57;2.05;;;1.15;;
31004;SDS011;17676;52.254;4.490;2024-03-02T04:16:24;1.27;;;1.15;;
31004;SDS011;17676;52.254;4.490;2024-03-02T04:18:51;2.20;;;1.00;;
31004;SDS011;17676;52.254;4.490;2024-03-02T04:21:18;1.73;;;0.90;;
31004;SDS011;17676;52.254;4.490;2024-03-02T04:23:45;1.75;;;1.08;;
31004;SDS011;17676;52.254;4.490;2024-03-02T04:26:11;1.40;;;1.10;;
31004;SDS011;17676;52.254;4.490;2024-03-02T04:28:38;1.55;;;0.90;;
31004;SDS011;17676;52.254;4.490;2024-03-02T04:31:04;1.48;;;1.02;;
31004;SDS011;17676;52.254;4.490;2024-03-02T04:33:31;1.77;;;1.05;;
31004;SDS011;17676;52.254;4.490;2024-03-02T04:35:58;1.20;;;1.10;;
31004;SDS011;17676;52.254;4.490;2024-03-02T04:38:24;2.45;;;1.02;;
31004;SDS011;17676;52.254;4.490;2024-03-02T04:40:51;0.57;;;0.50;;
31004;SDS011;17676;52.254;4.490;2024-03-02T04:43:18;1.38;;;0.70;;
31004;SDS011;17676;52.254;4.490;2024-03-02T04:45:45;0.73;;;0.70;;
31004;SDS011;17676;52.254;4.490;2024-03-02T04:48:12;1.58;;;0.73;;
31004;SDS011;17676;52.254;4.490;2024-03-02T04:50:40;3.15;;;0.90;;
31004;SDS011;17676;52.254;4.490;2024-03-02T04:53:07;2.33;;;0.90;;
31004;SDS011;17676;52.254;4.490;2024-03-02T04:55:34;1.13;;;0.60;;
31004;SDS011;17676;52.254;4.490;2024-03-02T04:58:00;2.33;;;0.70;;
31004;SDS011;17676;52.254;4.490;2024-03-02T05:00:27;3.78;;;0.70;;
31004;SDS011;17676;52.254;4.490;2024-03-02T05:02:54;1.65;;;0.50;;
31004;SDS011;17676;52.254;4.490;2024-03-02T05:05:20;2.30;;;0.70;;
31004;SDS011;17676;52.254;4.490;2024-03-02T05:07:47;1.42;;;0.77;;
31004;SDS011;17676;52.254;4.490;2024-03-02T05:10:14;2.15;;;0.90;;
31004;SDS011;17676;52.254;4.490;2024-03-02T05:12:41;1.65;;;0.60;;
31004;SDS011;17676;52.254;4.490;2024-03-02T05:15:11;1.30;;;0.70;;
31004;SDS011;17676;52.254;4.490;2024-03-02T05:17:39;0.50;;;0.50;;
31004;SDS011;17676;52.254;4.490;2024-03-02T05:20:09;1.80;;;0.73;;
31004;SDS011;17676;52.254;4.490;2024-03-02T05:22:36;1.27;;;0.67;;
31004;SDS011;17676;52.254;4.490;2024-03-02T05:25:04;0.75;;;0.40;;
31004;SDS011;17676;52.254;4.490;2024-03-02T05:27:31;0.80;;;0.45;;
31004;SDS011;17676;52.254;4.490;2024-03-02T05:30:01;2.30;;;0.60;;
31004;SDS011;17676;52.254;4.490;2024-03-02T05:32:28;0.85;;;0.50;;
31004;SDS011;17676;52.254;4.490;2024-03-02T05:34:55;0.70;;;0.40;;
31004;SDS011;17676;52.254;4.490;2024-03-02T05:37:21;0.85;;;0.40;;
31004;SDS011;17676;52.254;4.490;2024-03-02T05:39:48;1.75;;;0.40;;
31004;SDS011;17676;52.254;4.490;2024-03-02T05:42:15;1.60;;;0.40;;
31004;SDS011;17676;52.254;4.490;2024-03-02T05:44:43;0.75;;;0.40;;
31004;SDS011;17676;52.254;4.490;2024-03-02T05:47:09;0.77;;;0.30;;
31004;SDS011;17676;52.254;4.490;2024-03-02T05:49:36;0.57;;;0.30;;
31004;SDS011;17676;52.254;4.490;2024-03-02T05:52:03;1.20;;;0.33;;
31004;SDS011;17676;52.254;4.490;2024-03-02T05:54:30;0.73;;;0.30;;
31004;SDS011;17676;52.254;4.490;2024-03-02T05:56:56;0.93;;;0.57;;
31004;SDS011;17676;52.254;4.490;2024-03-02T05:59:23;1.35;;;0.35;;
31004;SDS011;17676;52.254;4.490;2024-03-02T06:01:49;0.97;;;0.20;;
31004;SDS011;17676;52.254;4.490;2024-03-02T06:04:19;1.58;;;0.28;;
31004;SDS011;17676;52.254;4.490;2024-03-02T06:06:46;1.00;;;0.30;;
31004;SDS011;17676;52.254;4.490;2024-03-02T06:09:13;2.20;;;0.30;;
31004;SDS011;17676;52.254;4.490;2024-03-02T06:11:40;0.93;;;0.25;;
31004;SDS011;17676;52.254;4.490;2024-03-02T06:14:08;0.30;;;0.30;;
31004;SDS011;17676;52.254;4.490;2024-03-02T06:16:35;0.60;;;0.20;;
31004;SDS011;17676;52.254;4.490;2024-03-02T06:19:02;1.70;;;0.30;;
31004;SDS011;17676;52.254;4.490;2024-03-02T06:21:29;2.10;;;0.20;;
31004;SDS011;17676;52.254;4.490;2024-03-02T06:23:56;0.70;;;0.30;;
31004;SDS011;17676;52.254;4.490;2024-03-02T06:26:23;1.13;;;0.30;;
31004;SDS011;17676;52.254;4.490;2024-03-02T06:28:51;2.40;;;0.30;;
31004;SDS011;17676;52.254;4.490;2024-03-02T06:31:18;0.83;;;0.20;;
31004;SDS011;17676;52.254;4.490;2024-03-02T06:33:45;2.40;;;0.20;;
31004;SDS011;17676;52.254;4.490;2024-03-02T06:36:12;1.57;;;0.20;;
31004;SDS011;17676;52.254;4.490;2024-03-02T06:38:39;1.03;;;0.43;;
31004;SDS011;17676;52.254;4.490;2024-03-02T06:41:09;0.97;;;0.20;;
31004;SDS011;17676;52.254;4.490;2024-03-02T06:43:35;2.57;;;0.20;;
31004;SDS011;17676;52.254;4.490;2024-03-02T06:46:02;1.70;;;0.20;;
31004;SDS011;17676;52.254;4.490;2024-03-02T06:48:29;1.23;;;0.20;;
31004;SDS011;17676;52.254;4.490;2024-03-02T06:50:56;2.33;;;0.20;;
31004;SDS011;17676;52.254;4.490;2024-03-02T06:53:24;3.13;;;0.27;;
31004;SDS011;17676;52.254;4.490;2024-03-02T06:55:51;0.50;;;0.20;;
31004;SDS011;17676;52.254;4.490;2024-03-02T06:58:18;0.77;;;0.20;;
31004;SDS011;17676;52.254;4.490;2024-03-02T07:00:45;1.97;;;0.20;;
31004;SDS011;17676;52.254;4.490;2024-03-02T07:03:11;2.90;;;0.20;;
31004;SDS011;17676;52.254;4.490;2024-03-02T07:05:39;3.40;;;0.20;;
31004;SDS011;17676;52.254;4.490;2024-03-02T07:08:05;3.67;;;0.20;;
31004;SDS011;17676;52.254;4.490;2024-03-02T07:10:32;0.93;;;0.20;;
31004;SDS011;17676;52.254;4.490;2024-03-02T07:12:59;2.03;;;0.20;;
31004;SDS011;17676;52.254;4.490;2024-03-02T07:15:26;1.90;;;0.20;;
31004;SDS011;17676;52.254;4.490;2024-03-02T07:18:09;1.40;;;0.17;;
31004;SDS011;17676;52.254;4.490;2024-03-02T07:20:36;0.73;;;0.17;;
31004;SDS011;17676;52.254;4.490;2024-03-02T07:23:05;2.00;;;0.17;;
31004;SDS011;17676;52.254;4.490;2024-03-02T07:25:32;2.08;;;0.20;;
31004;SDS011;17676;52.254;4.490;2024-03-02T07:28:02;0.50;;;0.10;;
31004;SDS011;17676;52.254;4.490;2024-03-02T07:30:29;1.60;;;0.10;;
31004;SDS011;17676;52.254;4.490;2024-03-02T07:32:59;1.23;;;0.20;;
31004;SDS011;17676;52.254;4.490;2024-03-02T07:35:26;1.47;;;0.30;;
31004;SDS011;17676;52.254;4.490;2024-03-02T07:37:58;1.70;;;0.20;;
31004;SDS011;17676;52.254;4.490;2024-03-02T07:40:24;0.93;;;0.20;;
31004;SDS011;17676;52.254;4.490;2024-03-02T07:42:52;1.27;;;0.10;;
31004;SDS011;17676;52.254;4.490;2024-03-02T07:45:19;1.45;;;0.10;;
31004;SDS011;17676;52.254;4.490;2024-03-02T07:47:46;0.38;;;0.10;;
31004;SDS011;17676;52.254;4.490;2024-03-02T07:50:13;0.77;;;0.10;;
31004;SDS011;17676;52.254;4.490;2024-03-02T07:52:39;1.73;;;0.20;;
31004;SDS011;17676;52.254;4.490;2024-03-02T07:55:06;3.17;;;0.20;;
31004;SDS011;17676;52.254;4.490;2024-03-02T07:57:33;2.30;;;0.20;;
31004;SDS011;17676;52.254;4.490;2024-03-02T08:00:00;2.53;;;0.15;;
31004;SDS011;17676;52.254;4.490;2024-03-02T08:02:27;0.65;;;0.20;;
31004;SDS011;17676;52.254;4.490;2024-03-02T08:04:53;0.30;;;0.10;;
31004;SDS011;17676;52.254;4.490;2024-03-02T08:07:20;0.68;;;0.13;;
31004;SDS011;17676;52.254;4.490;2024-03-02T08:09:47;0.60;;;0.13;;
31004;SDS011;17676;52.254;4.490;2024-03-02T08:12:13;2.50;;;0.10;;
31004;SDS011;17676;52.254;4.490;2024-03-02T08:14:40;3.28;;;0.15;;
31004;SDS011;17676;52.254;4.490;2024-03-02T08:17:07;1.48;;;0.20;;
31004;SDS011;17676;52.254;4.490;2024-03-02T08:19:36;1.65;;;0.20;;
31004;SDS011;17676;52.254;4.490;2024-03-02T08:22:03;1.52;;;0.10;;
31004;SDS011;17676;52.254;4.490;2024-03-02T08:24:30;0.88;;;0.20;;
31004;SDS011;17676;52.254;4.490;2024-03-02T08:26:59;2.47;;;0.47;;
31004;SDS011;17676;52.254;4.490;2024-03-02T08:29:26;1.85;;;0.20;;
31004;SDS011;17676;52.254;4.490;2024-03-02T08:31:53;1.83;;;0.10;;
31004;SDS011;17676;52.254;4.490;2024-03-02T08:34:20;1.80;;;0.10;;
31004;SDS011;17676;52.254;4.490;2024-03-02T08:36:47;2.63;;;0.10;;
31004;SDS011;17676;52.254;4.490;2024-03-02T08:39:14;2.08;;;0.10;;
31004;SDS011;17676;52.254;4.490;2024-03-02T08:41:45;1.83;;;0.20;;
31004;SDS011;17676;52.254;4.490;2024-03-02T08:44:12;1.42;;;0.10;;
31004;SDS011;17676;52.254;4.490;2024-03-02T08:46:40;0.80;;;0.10;;
31004;SDS011;17676;52.254;4.490;2024-03-02T08:49:07;1.50;;;0.30;;
31004;SDS011;17676;52.254;4.490;2024-03-02T08:51:33;2.30;;;0.10;;
31004;SDS011;17676;52.254;4.490;2024-03-02T08:54:00;2.58;;;0.10;;
31004;SDS011;17676;52.254;4.490;2024-03-02T08:56:27;1.50;;;0.20;;
31004;SDS011;17676;52.254;4.490;2024-03-02T08:58:54;0.80;;;0.20;;
31004;SDS011;17676;52.254;4.490;2024-03-02T09:01:20;0.57;;;0.15;;
31004;SDS011;17676;52.254;4.490;2024-03-02T09:03:47;0.77;;;0.22;;
31004;SDS011;17676;52.254;4.490;2024-03-02T09:06:15;1.50;;;0.10;;
31004;SDS011;17676;52.254;4.490;2024-03-02T09:08:46;2.50;;;0.20;;
31004;SDS011;17676;52.254;4.490;2024-03-02T09:11:14;0.65;;;0.10;;
31004;SDS011;17676;52.254;4.490;2024-03-02T09:13:41;0.65;;;0.10;;
31004;SDS011;17676;52.254;4.490;2024-03-02T09:16:08;0.90;;;0.10;;
31004;SDS011;17676;52.254;4.490;2024-03-02T09:18:37;0.43;;;0.10;;
31004;SDS011;17676;52.254;4.490;2024-03-02T09:21:04;1.02;;;0.10;;
31004;SDS011;17676;52.254;4.490;2024-03-02T09:23:31;2.15;;;0.20;;
31004;SDS011;17676;52.254;4.490;2024-03-02T09:25:58;1.40;;;0.10;;
31004;SDS011;17676;52.254;4.490;2024-03-02T09:28:25;2.10;;;0.10;;
31004;SDS011;17676;52.254;4.490;2024-03-02T09:30:52;0.82;;;0.17;;
31004;SDS011;17676;52.254;4.490;2024-03-02T09:33:21;1.95;;;0.20;;
31004;SDS011;17676;52.254;4.490;2024-03-02T09:35:49;0.90;;;0.30;;
31004;SDS011;17676;52.254;4.490;2024-03-02T09:38:17;1.50;;;0.20;;
31004;SDS011;17676;52.254;4.490;2024-03-02T09:40:44;1.40;;;0.20;;
31004;SDS011;17676;52.254;4.490;2024-03-02T09:43:10;0.50;;;0.10;;
31004;SDS011;17676;52.254;4.490;2024-03-02T09:45:37;1.25;;;0.30;;
31004;SDS011;17676;52.254;4.490;2024-03-02T09:48:04;1.10;;;0.28;;
31004;SDS011;17676;52.254;4.490;2024-03-02T09:50:31;2.60;;;0.10;;
31004;SDS011;17676;52.254;4.490;2024-03-02T09:52:58;3.65;;;0.10;;
31004;SDS011;17676;52.254;4.490;2024-03-02T09:55:25;1.65;;;0.13;;
31004;SDS011;17676;52.254;4.490;2024-03-02T09:57:52;4.65;;;0.20;;
31004;SDS011;17676;52.254;4.490;2024-03-02T10:00:19;1.48;;;0.10;;
31004;SDS011;17676;52.254;4.490;2024-03-02T10:02:45;3.05;;;0.20;;
31004;SDS011;17676;52.254;4.490;2024-03-02T10:05:23;3.25;;;0.43;;
31004;SDS011;17676;52.254;4.490;2024-03-02T10:07:58;0.77;;;0.20;;
31004;SDS011;17676;52.254;4.490;2024-03-02T10:10:37;2.47;;;0.10;;
31004;SDS011;17676;52.254;4.490;2024-03-02T10:13:12;3.85;;;0.35;;
31004;SDS011;17676;52.254;4.490;2024-03-02T10:15:40;1.73;;;0.20;;
31004;SDS011;17676;52.254;4.490;2024-03-02T10:18:10;2.00;;;0.20;;
31004;SDS011;17676;52.254;4.490;2024-03-02T10:20:39;3.63;;;0.30;;
31004;SDS011;17676;52.254;4.490;2024-03-02T10:23:09;1.77;;;0.10;;
31004;SDS011;17676;52.254;4.490;2024-03-02T10:25:37;4.15;;;0.20;;
31004;SDS011;17676;52.254;4.490;2024-03-02T10:28:17;4.55;;;0.40;;
31004;SDS011;17676;52.254;4.490;2024-03-02T10:30:47;1.48;;;0.17;;
31004;SDS011;17676;52.254;4.490;2024-03-02T10:33:15;2.42;;;0.10;;
31004;SDS011;17676;52.254;4.490;2024-03-02T10:35:43;1.48;;;0.10;;
31004;SDS011;17676;52.254;4.490;2024-03-02T10:38:10;0.90;;;0.10;;
31004;SDS011;17676;52.254;4.490;2024-03-02T10:40:37;3.65;;;0.20;;
31004;SDS011;17676;52.254;4.490;2024-03-02T10:43:04;1.48;;;0.10;;
31004;SDS011;17676;52.254;4.490;2024-03-02T10:45:32;1.55;;;0.20;;
31004;SDS011;17676;52.254;4.490;2024-03-02T10:48:00;1.80;;;0.20;;
31004;SDS011;17676;52.254;4.490;2024-03-02T10:50:29;2.33;;;0.20;;
31004;SDS011;17676;52.254;4.490;2024-03-02T10:52:56;2.78;;;0.20;;
31004;SDS011;17676;52.254;4.490;2024-03-02T10:55:23;1.73;;;0.10;;
31004;SDS011;17676;52.254;4.490;2024-03-02T10:57:51;2.22;;;0.13;;
31004;SDS011;17676;52.254;4.490;2024-03-02T11:00:24;0.85;;;0.20;;
31004;SDS011;17676;52.254;4.490;2024-03-02T11:02:56;2.00;;;0.20;;
31004;SDS011;17676;52.254;4.490;2024-03-02T11:05:27;4.53;;;0.20;;
31004;SDS011;17676;52.254;4.490;2024-03-02T11:08:17;0.88;;;0.10;;
31004;SDS011;17676;52.254;4.490;2024-03-02T11:10:57;3.42;;;0.20;;
31004;SDS011;17676;52.254;4.490;2024-03-02T11:13:31;2.55;;;0.20;;
31004;SDS011;17676;52.254;4.490;2024-03-02T11:16:03;0.80;;;0.20;;
31004;SDS011;17676;52.254;4.490;2024-03-02T11:18:36;2.28;;;0.20;;
31004;SDS011;17676;52.254;4.490;2024-03-02T11:21:03;3.03;;;0.32;;
31004;SDS011;17676;52.254;4.490;2024-03-02T11:23:31;1.15;;;0.20;;
31004;SDS011;17676;52.254;4.490;2024-03-02T11:28:47;2.55;;;0.20;;
31004;SDS011;17676;52.254;4.490;2024-03-02T11:31:14;2.80;;;0.22;;
31004;SDS011;17676;52.254;4.490;2024-03-02T11:33:43;2.35;;;0.20;;
31004;SDS011;17676;52.254;4.490;2024-03-02T11:36:10;4.18;;;0.20;;
31004;SDS011;17676;52.254;4.490;2024-03-02T11:38:38;3.92;;;0.20;;
31004;SDS011;17676;52.254;4.490;2024-03-02T11:41:08;2.28;;;0.20;;
31004;SDS011;17676;52.254;4.490;2024-03-02T11:43:38;0.98;;;0.20;;
31004;SDS011;17676;52.254;4.490;2024-03-02T11:46:06;3.75;;;0.30;;
31004;SDS011;17676;52.254;4.490;2024-03-02T11:48:36;2.17;;;0.20;;
31004;SDS011;17676;52.254;4.490;2024-03-02T11:51:05;2.28;;;0.13;;
31004;SDS011;17676;52.254;4.490;2024-03-02T11:53:32;3.90;;;0.20;;
31004;SDS011;17676;52.254;4.490;2024-03-02T11:56:01;1.27;;;0.20;;
31004;SDS011;17676;52.254;4.490;2024-03-02T11:58:28;1.00;;;0.30;;
31004;SDS011;17676;52.254;4.490;2024-03-02T12:00:56;1.08;;;0.17;;
31004;SDS011;17676;52.254;4.490;2024-03-02T12:03:24;2.60;;;0.25;;
31004;SDS011;17676;52.254;4.490;2024-03-02T12:05:53;2.42;;;0.20;;
31004;SDS011;17676;52.254;4.490;2024-03-02T12:08:20;3.15;;;0.20;;
31004;SDS011;17676;52.254;4.490;2024-03-02T12:11:00;2.35;;;0.20;;
31004;SDS011;17676;52.254;4.490;2024-03-02T12:13:29;2.08;;;0.20;;
31004;SDS011;17676;52.254;4.490;2024-03-02T12:15:57;1.58;;;0.20;;
31004;SDS011;17676;52.254;4.490;2024-03-02T12:18:24;2.55;;;0.20;;
31004;SDS011;17676;52.254;4.490;2024-03-02T12:20:52;1.75;;;0.20;;
31004;SDS011;17676;52.254;4.490;2024-03-02T12:23:19;0.77;;;0.10;;
31004;SDS011;17676;52.254;4.490;2024-03-02T12:25:46;2.35;;;0.20;;
31004;SDS011;17676;52.254;4.490;2024-03-02T12:28:13;3.38;;;0.20;;
31004;SDS011;17676;52.254;4.490;2024-03-02T12:30:39;1.95;;;0.10;;
31004;SDS011;17676;52.254;4.490;2024-03-02T12:33:06;1.58;;;0.10;;
31004;SDS011;17676;52.254;4.490;2024-03-02T12:35:33;1.15;;;0.10;;
31004;SDS011;17676;52.254;4.490;2024-03-02T12:38:02;2.47;;;0.15;;
31004;SDS011;17676;52.254;4.490;2024-03-02T12:40:28;2.00;;;0.20;;
31004;SDS011;17676;52.254;4.490;2024-03-02T12:42:58;2.08;;;0.20;;
31004;SDS011;17676;52.254;4.490;2024-03-02T12:45:25;1.90;;;0.40;;
31004;SDS011;17676;52.254;4.490;2024-03-02T12:47:52;1.55;;;0.20;;
31004;SDS011;17676;52.254;4.490;2024-03-02T12:50:20;3.58;;;0.13;;
31004;SDS011;17676;52.254;4.490;2024-03-02T12:52:51;0.98;;;0.17;;
31004;SDS011;17676;52.254;4.490;2024-03-02T12:55:21;2.92;;;0.20;;
31004;SDS011;17676;52.254;4.490;2024-03-02T12:57:50;2.45;;;0.13;;
31004;SDS011;17676;52.254;4.490;2024-03-02T13:00:18;1.70;;;0.20;;
31004;SDS011;17676;52.254;4.490;2024-03-02T13:02:46;1.85;;;0.20;;
31004;SDS011;17676;52.254;4.490;2024-03-02T13:05:15;2.00;;;0.20;;
31004;SDS011;17676;52.254;4.490;2024-03-02T13:07:42;4.43;;;0.38;;
31004;SDS011;17676;52.254;4.490;2024-03-02T13:10:08;3.15;;;0.20;;
31004;SDS011;17676;52.254;4.490;2024-03-02T13:12:36;0.20;;;0.10;;
31004;SDS011;17676;52.254;4.490;2024-03-02T13:15:03;2.63;;;0.10;;
31004;SDS011;17676;52.254;4.490;2024-03-02T13:17:34;2.08;;;0.20;;
31004;SDS011;17676;52.254;4.490;2024-03-02T13:20:04;2.58;;;0.22;;
31004;SDS011;17676;52.254;4.490;2024-03-02T13:22:34;4.32;;;0.30;;
31004;SDS011;17676;52.254;4.490;2024-03-02T13:25:02;2.05;;;0.20;;
31004;SDS011;17676;52.254;4.490;2024-03-02T13:27:33;3.13;;;0.20;;
31004;SDS011;17676;52.254;4.490;2024-03-02T13:30:00;4.47;;;0.38;;
31004;SDS011;17676;52.254;4.490;2024-03-02T13:32:29;3.03;;;0.20;;
31004;SDS011;17676;52.254;4.490;2024-03-02T13:34:55;4.30;;;0.20;;
31004;SDS011;17676;52.254;4.490;2024-03-02T13:37:22;3.65;;;0.28;;
31004;SDS011;17676;52.254;4.490;2024-03-02T13:39:49;3.20;;;0.30;;
31004;SDS011;17676;52.254;4.490;2024-03-02T13:42:16;4.82;;;0.40;;
31004;SDS011;17676;52.254;4.490;2024-03-02T13:44:43;5.65;;;0.20;;
31004;SDS011;17676;52.254;4.490;2024-03-02T13:47:13;3.42;;;0.30;;
31004;SDS011;17676;52.254;4.490;2024-03-02T13:49:40;5.57;;;0.20;;
31004;SDS011;17676;52.254;4.490;2024-03-02T13:52:11;2.10;;;0.20;;
31004;SDS011;17676;52.254;4.490;2024-03-02T13:54:40;2.35;;;0.30;;
31004;SDS011;17676;52.254;4.490;2024-03-02T13:57:09;1.60;;;0.20;;
31004;SDS011;17676;52.254;4.490;2024-03-02T13:59:37;4.38;;;0.20;;
31004;SDS011;17676;52.254;4.490;2024-03-02T14:02:05;1.88;;;0.20;;
31004;SDS011;17676;52.254;4.490;2024-03-02T14:04:32;3.55;;;0.20;;
31004;SDS011;17676;52.254;4.490;2024-03-02T14:07:00;2.38;;;0.20;;
31004;SDS011;17676;52.254;4.490;2024-03-02T14:09:27;3.63;;;0.20;;
31004;SDS011;17676;52.254;4.490;2024-03-02T14:11:55;2.67;;;0.22;;
31004;SDS011;17676;52.254;4.490;2024-03-02T14:14:22;2.20;;;0.20;;
31004;SDS011;17676;52.254;4.490;2024-03-02T14:16:49;1.80;;;0.10;;
31004;SDS011;17676;52.254;4.490;2024-03-02T14:19:16;1.63;;;0.20;;
31004;SDS011;17676;52.254;4.490;2024-03-02T14:21:43;2.25;;;0.20;;
31004;SDS011;17676;52.254;4.490;2024-03-02T14:24:09;1.30;;;0.20;;
31004;SDS011;17676;52.254;4.490;2024-03-02T14:26:36;1.30;;;0.20;;
31004;SDS011;17676;52.254;4.490;2024-03-02T14:29:03;1.67;;;0.20;;
31004;SDS011;17676;52.254;4.490;2024-03-02T14:31:31;3.20;;;0.30;;
31004;SDS011;17676;52.254;4.490;2024-03-02T14:33:58;2.50;;;0.20;;
31004;SDS011;17676;52.254;4.490;2024-03-02T14:36:26;3.20;;;0.20;;
31004;SDS011;17676;52.254;4.490;2024-03-02T14:38:54;2.22;;;0.10;;
31004;SDS011;17676;52.254;4.490;2024-03-02T14:41:22;1.73;;;0.20;;
31004;SDS011;17676;52.254;4.490;2024-03-02T14:43:50;2.00;;;0.10;;
31004;SDS011;17676;52.254;4.490;2024-03-02T14:46:18;1.20;;;0.10;;
31004;SDS011;17676;52.254;4.490;2024-03-02T14:48:45;2.38;;;0.30;;
31004;SDS011;17676;52.254;4.490;2024-03-02T14:51:13;2.35;;;0.10;;
31004;SDS011;17676;52.254;4.490;2024-03-02T14:53:40;1.25;;;0.10;;
31004;SDS011;17676;52.254;4.490;2024-03-02T14:56:07;2.22;;;0.20;;
31004;SDS011;17676;52.254;4.490;2024-03-02T14:58:34;2.22;;;0.20;;